sensor_id;sensor_type;location;lat;lon;timestamp;pressure;altitude;pressure_sealevel;temperature;humidity
71109;BME280;59614;51.012;-1.648;2022-08-14T00:00:48;100154.13;;;21.00;42.89
71109;BME280;59614;51.012;-1.648;2022-08-14T00:03:21;100153.72;;;20.63;44.62
71109;BME280;59614;51.012;-1.648;2022-08-14T00:05:47;100152.78;;;20.35;45.90
71109;BME280;59614;51.012;-1.648;2022-08-14T00:08:13;100157.47;;;20.17;46.54
71109;BME280;59614;51.012;-1.648;2022-08-14T00:10:39;100159.25;;;20.02;48.13
71109;BME280;59614;51.012;-1.648;2022-08-14T00:13:04;100155.69;;;19.87;48.67
71109;BME280;59614;51.012;-1.648;2022-08-14T00:15:33;100156.19;;;19.78;49.01
71109;BME280;59614;51.012;-1.648;2022-08-14T00:17:59;100161.56;;;19.62;49.52
71109;BME280;59614;51.012;-1.648;2022-08-14T00:20:29;100152.53;;;19.48;50.07
71109;BME280;59614;51.012;-1.648;2022-08-14T00:22:55;100151.06;;;19.42;50.17
71109;BME280;59614;51.012;-1.648;2022-08-14T00:25:20;100147.91;;;19.36;50.33
71109;BME280;59614;51.012;-1.648;2022-08-14T00:27:46;100141.78;;;19.34;50.57
71109;BME280;59614;51.012;-1.648;2022-08-14T00:30:14;100146.53;;;19.28;50.48
71109;BME280;59614;51.012;-1.648;2022-08-14T00:32:39;100141.44;;;19.24;50.72
71109;BME280;59614;51.012;-1.648;2022-08-14T00:35:07;100141.81;;;19.18;50.81
71109;BME280;59614;51.012;-1.648;2022-08-14T00:37:33;100135.06;;;19.10;50.86
71109;BME280;59614;51.012;-1.648;2022-08-14T00:39:59;100138.19;;;19.03;50.64
71109;BME280;59614;51.012;-1.648;2022-08-14T00:42:26;100131.25;;;19.31;48.93
71109;BME280;59614;51.012;-1.648;2022-08-14T00:44:52;100125.78;;;19.48;48.22
71109;BME280;59614;51.012;-1.648;2022-08-14T00:47:19;100118.72;;;19.47;48.14
71109;BME280;59614;51.012;-1.648;2022-08-14T00:49:50;100122.41;;;19.44;48.57
71109;BME280;59614;51.012;-1.648;2022-08-14T00:52:19;100130.72;;;19.40;48.37
71109;BME280;59614;51.012;-1.648;2022-08-14T00:54:47;100128.22;;;19.37;48.61
71109;BME280;59614;51.012;-1.648;2022-08-14T00:57:18;100129.53;;;19.29;48.63
71109;BME280;59614;51.012;-1.648;2022-08-14T00:59:43;100110.16;;;19.56;47.12
71109;BME280;59614;51.012;-1.648;2022-08-14T01:02:11;100116.47;;;19.86;45.78
71109;BME280;59614;51.012;-1.648;2022-08-14T01:04:37;100111.88;;;20.02;45.16
71109;BME280;59614;51.012;-1.648;2022-08-14T01:07:03;100113.94;;;20.13;44.61
71109;BME280;59614;51.012;-1.648;2022-08-14T01:09:31;100116.41;;;20.16;44.23
71109;BME280;59614;51.012;-1.648;2022-08-14T01:11:57;100105.50;;;20.19;44.08
71109;BME280;59614;51.012;-1.648;2022-08-14T01:14:24;100099.94;;;20.23;44.42
71109;BME280;59614;51.012;-1.648;2022-08-14T01:16:49;100093.63;;;20.24;44.21
71109;BME280;59614;51.012;-1.648;2022-08-14T01:19:15;100090.75;;;20.27;44.03
71109;BME280;59614;51.012;-1.648;2022-08-14T01:21:59;100084.53;;;20.26;44.08
71109;BME280;59614;51.012;-1.648;2022-08-14T01:24:25;100082.94;;;20.24;44.09
71109;BME280;59614;51.012;-1.648;2022-08-14T01:26:51;100083.00;;;20.22;44.17
71109;BME280;59614;51.012;-1.648;2022-08-14T01:29:18;100081.19;;;20.23;44.17
71109;BME280;59614;51.012;-1.648;2022-08-14T01:31:44;100067.78;;;20.23;44.01
71109;BME280;59614;51.012;-1.648;2022-08-14T01:34:17;100075.84;;;20.23;43.88
71109;BME280;59614;51.012;-1.648;2022-08-14T01:36:45;100069.72;;;20.20;44.22
71109;BME280;59614;51.012;-1.648;2022-08-14T01:39:15;100063.56;;;20.18;44.29
71109;BME280;59614;51.012;-1.648;2022-08-14T01:41:43;100064.75;;;20.14;44.24
71109;BME280;59614;51.012;-1.648;2022-08-14T01:44:13;100056.91;;;20.11;44.50
71109;BME280;59614;51.012;-1.648;2022-08-14T01:46:41;100051.72;;;20.08;44.57
71109;BME280;59614;51.012;-1.648;2022-08-14T01:49:11;100041.19;;;20.05;44.53
71109;BME280;59614;51.012;-1.648;2022-08-14T01:51:40;100039.66;;;20.01;44.53
71109;BME280;59614;51.012;-1.648;2022-08-14T01:54:11;100029.03;;;19.99;44.83
71109;BME280;59614;51.012;-1.648;2022-08-14T01:56:37;100028.19;;;19.99;44.67
71109;BME280;59614;51.012;-1.648;2022-08-14T01:59:08;100029.91;;;20.00;44.66
71109;BME280;59614;51.012;-1.648;2022-08-14T02:01:35;100030.69;;;20.02;44.56
71109;BME280;59614;51.012;-1.648;2022-08-14T02:04:02;100026.34;;;19.99;44.70
71109;BME280;59614;51.012;-1.648;2022-08-14T02:06:28;100022.94;;;19.97;44.81
71109;BME280;59614;51.012;-1.648;2022-08-14T02:08:54;100023.78;;;19.98;44.79
71109;BME280;59614;51.012;-1.648;2022-08-14T02:11:20;100027.34;;;19.98;44.76
71109;BME280;59614;51.012;-1.648;2022-08-14T02:14:07;100022.84;;;19.99;44.68
71109;BME280;59614;51.012;-1.648;2022-08-14T02:16:41;100015.19;;;19.93;44.79
71109;BME280;59614;51.012;-1.648;2022-08-14T02:19:09;100020.91;;;19.86;45.13
71109;BME280;59614;51.012;-1.648;2022-08-14T02:21:36;100019.53;;;19.79;45.68
71109;BME280;59614;51.012;-1.648;2022-08-14T02:24:03;100020.28;;;19.67;46.03
71109;BME280;59614;51.012;-1.648;2022-08-14T02:26:32;100015.69;;;19.54;46.76
71109;BME280;59614;51.012;-1.648;2022-08-14T02:29:04;100023.50;;;19.43;47.00
71109;BME280;59614;51.012;-1.648;2022-08-14T02:31:32;100022.28;;;19.18;48.13
71109;BME280;59614;51.012;-1.648;2022-08-14T02:33:59;100017.53;;;19.23;47.18
71109;BME280;59614;51.012;-1.648;2022-08-14T02:36:25;100027.69;;;19.33;46.77
71109;BME280;59614;51.012;-1.648;2022-08-14T02:38:51;100023.66;;;19.40;46.47
71109;BME280;59614;51.012;-1.648;2022-08-14T02:41:17;100021.59;;;19.45;46.11
71109;BME280;59614;51.012;-1.648;2022-08-14T02:43:42;100024.06;;;19.48;46.23
71109;BME280;59614;51.012;-1.648;2022-08-14T02:46:09;100019.69;;;19.47;46.19
71109;BME280;59614;51.012;-1.648;2022-08-14T02:48:44;100020.44;;;19.49;46.17
71109;BME280;59614;51.012;-1.648;2022-08-14T02:51:13;100032.09;;;19.48;46.16
71109;BME280;59614;51.012;-1.648;2022-08-14T02:53:41;100024.28;;;19.45;46.22
71109;BME280;59614;51.012;-1.648;2022-08-14T02:56:09;100032.31;;;19.45;46.22
71109;BME280;59614;51.012;-1.648;2022-08-14T02:58:38;100029.03;;;19.40;46.29
71109;BME280;59614;51.012;-1.648;2022-08-14T03:01:06;100021.28;;;19.35;46.42
71109;BME280;59614;51.012;-1.648;2022-08-14T03:03:32;100027.69;;;19.33;46.69
71109;BME280;59614;51.012;-1.648;2022-08-14T03:05:58;100018.19;;;19.27;46.74
71109;BME280;59614;51.012;-1.648;2022-08-14T03:08:24;100021.81;;;19.26;46.67
71109;BME280;59614;51.012;-1.648;2022-08-14T03:10:56;100022.00;;;19.23;46.84
71109;BME280;59614;51.012;-1.648;2022-08-14T03:13:23;100022.28;;;19.18;47.03
71109;BME280;59614;51.012;-1.648;2022-08-14T03:15:50;100019.03;;;19.13;47.12
71109;BME280;59614;51.012;-1.648;2022-08-14T03:18:19;100012.13;;;19.09;47.08
71109;BME280;59614;51.012;-1.648;2022-08-14T03:20:48;100013.06;;;19.08;47.34
71109;BME280;59614;51.012;-1.648;2022-08-14T03:23:13;100011.34;;;19.07;47.46
71109;BME280;59614;51.012;-1.648;2022-08-14T03:25:39;100013.84;;;19.10;47.20
71109;BME280;59614;51.012;-1.648;2022-08-14T03:28:06;99998.84;;;19.07;47.51
71109;BME280;59614;51.012;-1.648;2022-08-14T03:30:32;100004.09;;;19.09;47.73
71109;BME280;59614;51.012;-1.648;2022-08-14T03:32:58;100010.28;;;19.09;47.37
71109;BME280;59614;51.012;-1.648;2022-08-14T03:35:25;100004.78;;;19.12;47.38
71109;BME280;59614;51.012;-1.648;2022-08-14T03:37:50;100012.69;;;19.14;47.33
71109;BME280;59614;51.012;-1.648;2022-08-14T03:40:21;100009.84;;;19.17;47.41
71109;BME280;59614;51.012;-1.648;2022-08-14T03:42:47;100020.66;;;19.16;47.34
71109;BME280;59614;51.012;-1.648;2022-08-14T03:45:13;100016.69;;;19.07;47.64
71109;BME280;59614;51.012;-1.648;2022-08-14T03:47:40;100014.00;;;19.07;47.43
71109;BME280;59614;51.012;-1.648;2022-08-14T03:50:07;100006.28;;;19.02;47.78
71109;BME280;59614;51.012;-1.648;2022-08-14T03:52:38;100011.88;;;18.97;47.87
71109;BME280;59614;51.012;-1.648;2022-08-14T03:55:06;100008.56;;;18.92;48.13
71109;BME280;59614;51.012;-1.648;2022-08-14T03:57:33;100000.31;;;18.81;48.47
71109;BME280;59614;51.012;-1.648;2022-08-14T04:00:05;99997.06;;;18.76;48.56
71109;BME280;59614;51.012;-1.648;2022-08-14T04:02:33;100002.50;;;18.74;48.63
71109;BME280;59614;51.012;-1.648;2022-08-14T04:04:58;99992.75;;;18.73;48.71
71109;BME280;59614;51.012;-1.648;2022-08-14T04:07:25;99988.44;;;18.71;48.88
71109;BME280;59614;51.012;-1.648;2022-08-14T04:09:51;99984.91;;;18.70;48.93
71109;BME280;59614;51.012;-1.648;2022-08-14T04:12:16;99986.69;;;18.70;48.87
71109;BME280;59614;51.012;-1.648;2022-08-14T04:14:44;99977.00;;;18.68;48.96
71109;BME280;59614;51.012;-1.648;2022-08-14T04:17:10;99982.41;;;18.67;49.17
71109;BME280;59614;51.012;-1.648;2022-08-14T04:19:36;99977.16;;;18.65;49.17
71109;BME280;59614;51.012;-1.648;2022-08-14T04:22:02;99979.16;;;18.62;49.37
71109;BME280;59614;51.012;-1.648;2022-08-14T04:24:27;99975.84;;;18.57;49.62
71109;BME280;59614;51.012;-1.648;2022-08-14T04:26:53;99968.00;;;18.53;49.68
71109;BME280;59614;51.012;-1.648;2022-08-14T04:29:19;99965.53;;;18.50;49.91
71109;BME280;59614;51.012;-1.648;2022-08-14T04:31:45;99963.13;;;18.46;50.32
71109;BME280;59614;51.012;-1.648;2022-08-14T04:34:11;99955.19;;;18.44;50.40
71109;BME280;59614;51.012;-1.648;2022-08-14T04:36:37;99958.72;;;18.45;50.54
71109;BME280;59614;51.012;-1.648;2022-08-14T04:39:22;99964.91;;;18.45;50.62
71109;BME280;59614;51.012;-1.648;2022-08-14T04:42:06;99952.44;;;18.46;50.54
71109;BME280;59614;51.012;-1.648;2022-08-14T04:44:50;99952.44;;;18.46;50.67
71109;BME280;59614;51.012;-1.648;2022-08-14T04:47:16;99949.00;;;18.44;50.72
71109;BME280;59614;51.012;-1.648;2022-08-14T04:50:02;99954.34;;;18.44;50.88
71109;BME280;59614;51.012;-1.648;2022-08-14T04:52:28;99953.56;;;18.42;50.98
71109;BME280;59614;51.012;-1.648;2022-08-14T04:54:54;99947.44;;;18.40;51.42
71109;BME280;59614;51.012;-1.648;2022-08-14T04:57:19;99952.78;;;18.40;51.07
71109;BME280;59614;51.012;-1.648;2022-08-14T04:59:45;99946.75;;;18.36;52.12
71109;BME280;59614;51.012;-1.648;2022-08-14T05:02:10;99954.06;;;18.32;51.49
71109;BME280;59614;51.012;-1.648;2022-08-14T05:04:37;99947.94;;;18.30;52.01
71109;BME280;59614;51.012;-1.648;2022-08-14T05:07:03;99943.47;;;18.31;52.05
71109;BME280;59614;51.012;-1.648;2022-08-14T05:09:28;99941.50;;;18.34;52.13
71109;BME280;59614;51.012;-1.648;2022-08-14T05:11:54;99937.09;;;18.33;52.28
71109;BME280;59614;51.012;-1.648;2022-08-14T05:14:19;99937.09;;;18.33;52.31
71109;BME280;59614;51.012;-1.648;2022-08-14T05:16:46;99941.31;;;18.37;52.22
71109;BME280;59614;51.012;-1.648;2022-08-14T05:19:13;99938.47;;;18.41;52.41
71109;BME280;59614;51.012;-1.648;2022-08-14T05:21:40;99935.53;;;18.45;52.31
71109;BME280;59614;51.012;-1.648;2022-08-14T05:24:06;99938.97;;;18.47;52.28
71109;BME280;59614;51.012;-1.648;2022-08-14T05:26:32;99933.47;;;18.50;52.29
71109;BME280;59614;51.012;-1.648;2022-08-14T05:28:58;99941.38;;;18.52;52.32
71109;BME280;59614;51.012;-1.648;2022-08-14T05:31:23;99930.59;;;18.53;52.29
71109;BME280;59614;51.012;-1.648;2022-08-14T05:33:48;99927.84;;;18.55;52.33
71109;BME280;59614;51.012;-1.648;2022-08-14T05:36:14;99930.53;;;18.55;52.26
71109;BME280;59614;51.012;-1.648;2022-08-14T05:38:43;99928.63;;;18.57;52.48
71109;BME280;59614;51.012;-1.648;2022-08-14T05:41:14;99939.91;;;18.62;52.22
71109;BME280;59614;51.012;-1.648;2022-08-14T05:43:43;99935.22;;;18.66;52.44
71109;BME280;59614;51.012;-1.648;2022-08-14T05:46:11;99935.16;;;18.67;52.16
71109;BME280;59614;51.012;-1.648;2022-08-14T05:48:37;99932.22;;;18.72;52.37
71109;BME280;59614;51.012;-1.648;2022-08-14T05:51:03;99936.34;;;18.78;52.30
71109;BME280;59614;51.012;-1.648;2022-08-14T05:53:28;99937.88;;;18.82;52.84
71109;BME280;59614;51.012;-1.648;2022-08-14T05:55:54;99930.47;;;18.87;52.15
71109;BME280;59614;51.012;-1.648;2022-08-14T05:58:20;99939.31;;;18.88;53.14
71109;BME280;59614;51.012;-1.648;2022-08-14T06:00:47;99937.19;;;18.94;52.33
71109;BME280;59614;51.012;-1.648;2022-08-14T06:03:15;99949.25;;;19.02;52.22
71109;BME280;59614;51.012;-1.648;2022-08-14T06:05:43;99945.25;;;19.09;52.06
71109;BME280;59614;51.012;-1.648;2022-08-14T06:08:38;99941.06;;;19.19;51.76
71109;BME280;59614;51.012;-1.648;2022-08-14T06:11:05;99934.31;;;19.28;51.82
71109;BME280;59614;51.012;-1.648;2022-08-14T06:13:35;99935.53;;;19.37;51.57
71109;BME280;59614;51.012;-1.648;2022-08-14T06:16:01;99944.16;;;19.42;52.39
71109;BME280;59614;51.012;-1.648;2022-08-14T06:18:28;99939.00;;;19.53;51.33
71109;BME280;59614;51.012;-1.648;2022-08-14T06:20:54;99946.88;;;19.56;52.71
71109;BME280;59614;51.012;-1.648;2022-08-14T06:23:20;99946.09;;;19.69;51.31
71109;BME280;59614;51.012;-1.648;2022-08-14T06:25:45;99948.19;;;19.78;50.87
71109;BME280;59614;51.012;-1.648;2022-08-14T06:28:16;99950.13;;;19.90;50.40
71109;BME280;59614;51.012;-1.648;2022-08-14T06:30:42;99948.78;;;19.98;50.29
71109;BME280;59614;51.012;-1.648;2022-08-14T06:33:08;99944.97;;;20.02;50.98
71109;BME280;59614;51.012;-1.648;2022-08-14T06:35:34;99949.13;;;20.20;50.19
71109;BME280;59614;51.012;-1.648;2022-08-14T06:38:00;99947.75;;;20.28;50.35
71109;BME280;59614;51.012;-1.648;2022-08-14T06:40:28;99936.25;;;20.40;49.32
71109;BME280;59614;51.012;-1.648;2022-08-14T06:43:12;99937.28;;;20.52;48.89
71109;BME280;59614;51.012;-1.648;2022-08-14T06:45:41;99945.25;;;20.66;48.44
71109;BME280;59614;51.012;-1.648;2022-08-14T06:48:19;99940.94;;;20.78;48.02
71109;BME280;59614;51.012;-1.648;2022-08-14T06:50:46;99937.22;;;20.94;49.47
71109;BME280;59614;51.012;-1.648;2022-08-14T06:53:12;99937.69;;;21.13;47.30
71109;BME280;59614;51.012;-1.648;2022-08-14T06:55:42;99934.47;;;21.34;46.74
71109;BME280;59614;51.012;-1.648;2022-08-14T06:58:12;99930.00;;;21.60;46.28
71109;BME280;59614;51.012;-1.648;2022-08-14T07:00:37;99935.69;;;21.82;46.57
71109;BME280;59614;51.012;-1.648;2022-08-14T07:03:03;99923.59;;;22.00;45.78
71109;BME280;59614;51.012;-1.648;2022-08-14T07:05:47;99925.19;;;22.16;45.14
71109;BME280;59614;51.012;-1.648;2022-08-14T07:08:26;99920.31;;;22.21;44.98
71109;BME280;59614;51.012;-1.648;2022-08-14T07:10:55;99912.59;;;22.54;44.93
71109;BME280;59614;51.012;-1.648;2022-08-14T07:13:23;99909.31;;;22.97;43.86
71109;BME280;59614;51.012;-1.648;2022-08-14T07:15:51;99923.38;;;23.25;45.94
71109;BME280;59614;51.012;-1.648;2022-08-14T07:18:25;99910.53;;;23.40;43.82
71109;BME280;59614;51.012;-1.648;2022-08-14T07:20:52;99921.06;;;23.66;43.53
71109;BME280;59614;51.012;-1.648;2022-08-14T07:23:18;99912.75;;;23.57;43.92
71109;BME280;59614;51.012;-1.648;2022-08-14T07:25:44;99925.25;;;23.81;43.44
71109;BME280;59614;51.012;-1.648;2022-08-14T07:28:13;99908.84;;;23.84;42.85
71109;BME280;59614;51.012;-1.648;2022-08-14T07:30:39;99912.38;;;23.85;42.69
71109;BME280;59614;51.012;-1.648;2022-08-14T07:33:05;99905.19;;;23.97;43.23
71109;BME280;59614;51.012;-1.648;2022-08-14T07:35:32;99902.66;;;24.28;42.24
71109;BME280;59614;51.012;-1.648;2022-08-14T07:37:58;99901.72;;;24.50;42.50
71109;BME280;59614;51.012;-1.648;2022-08-14T07:40:24;99902.56;;;24.62;42.74
71109;BME280;59614;51.012;-1.648;2022-08-14T07:42:49;99909.16;;;24.69;42.68
71109;BME280;59614;51.012;-1.648;2022-08-14T07:45:15;99903.84;;;24.79;40.84
71109;BME280;59614;51.012;-1.648;2022-08-14T07:47:41;99896.97;;;25.07;41.13
71109;BME280;59614;51.012;-1.648;2022-08-14T07:50:18;99896.63;;;25.01;40.77
71109;BME280;59614;51.012;-1.648;2022-08-14T07:52:46;99905.00;;;25.19;40.05
71109;BME280;59614;51.012;-1.648;2022-08-14T07:55:13;99904.25;;;25.17;40.14
71109;BME280;59614;51.012;-1.648;2022-08-14T07:57:39;99896.16;;;25.38;39.84
71109;BME280;59614;51.012;-1.648;2022-08-14T08:00:07;99882.50;;;25.18;40.71
71109;BME280;59614;51.012;-1.648;2022-08-14T08:02:38;99888.31;;;25.66;40.99
71109;BME280;59614;51.012;-1.648;2022-08-14T08:05:05;99879.28;;;25.86;40.11
71109;BME280;59614;51.012;-1.648;2022-08-14T08:07:30;99876.69;;;26.16;38.15
71109;BME280;59614;51.012;-1.648;2022-08-14T08:09:58;99872.78;;;25.99;38.46
71109;BME280;59614;51.012;-1.648;2022-08-14T08:12:24;99877.00;;;26.42;37.91
71109;BME280;59614;51.012;-1.648;2022-08-14T08:14:50;99867.91;;;26.53;37.02
71109;BME280;59614;51.012;-1.648;2022-08-14T08:17:19;99861.34;;;26.56;36.79
71109;BME280;59614;51.012;-1.648;2022-08-14T08:19:46;99854.63;;;26.70;36.67
71109;BME280;59614;51.012;-1.648;2022-08-14T08:22:13;99855.78;;;26.96;36.28
71109;BME280;59614;51.012;-1.648;2022-08-14T08:24:38;99855.66;;;26.78;36.76
71109;BME280;59614;51.012;-1.648;2022-08-14T08:27:16;99856.13;;;27.21;36.55
71109;BME280;59614;51.012;-1.648;2022-08-14T08:29:42;99844.00;;;26.78;38.45
71109;BME280;59614;51.012;-1.648;2022-08-14T08:32:07;99846.53;;;26.89;37.84
71109;BME280;59614;51.012;-1.648;2022-08-14T08:34:43;99835.63;;;27.19;37.26
71109;BME280;59614;51.012;-1.648;2022-08-14T08:37:13;99842.97;;;27.46;36.25
71109;BME280;59614;51.012;-1.648;2022-08-14T08:39:46;99845.41;;;27.67;34.89
71109;BME280;59614;51.012;-1.648;2022-08-14T08:42:11;99836.41;;;27.95;35.21
71109;BME280;59614;51.012;-1.648;2022-08-14T08:44:38;99828.59;;;27.92;35.11
71109;BME280;59614;51.012;-1.648;2022-08-14T08:47:03;99837.81;;;27.99;35.99
71109;BME280;59614;51.012;-1.648;2022-08-14T08:49:37;99833.81;;;28.03;35.50
71109;BME280;59614;51.012;-1.648;2022-08-14T08:52:06;99834.06;;;28.28;35.50
71109;BME280;59614;51.012;-1.648;2022-08-14T08:54:32;99830.91;;;28.14;34.16
71109;BME280;59614;51.012;-1.648;2022-08-14T08:56:58;99834.69;;;28.22;35.46
71109;BME280;59614;51.012;-1.648;2022-08-14T08:59:25;99825.63;;;28.13;33.87
71109;BME280;59614;51.012;-1.648;2022-08-14T09:04:19;99820.81;;;28.25;33.87
71109;BME280;59614;51.012;-1.648;2022-08-14T09:06:48;99832.13;;;28.38;32.99
71109;BME280;59614;51.012;-1.648;2022-08-14T09:11:46;99832.72;;;28.86;33.70
71109;BME280;59614;51.012;-1.648;2022-08-14T09:14:11;99824.41;;;28.88;34.02
71109;BME280;59614;51.012;-1.648;2022-08-14T09:16:37;99825.84;;;28.74;33.77
71109;BME280;59614;51.012;-1.648;2022-08-14T09:19:03;99827.72;;;29.26;34.35
71109;BME280;59614;51.012;-1.648;2022-08-14T09:21:29;99815.25;;;28.89;32.46
71109;BME280;59614;51.012;-1.648;2022-08-14T09:23:55;99815.53;;;28.77;32.49
71109;BME280;59614;51.012;-1.648;2022-08-14T09:26:20;99814.56;;;28.87;32.49
71109;BME280;59614;51.012;-1.648;2022-08-14T09:28:46;99811.13;;;29.11;34.36
71109;BME280;59614;51.012;-1.648;2022-08-14T09:31:13;99816.13;;;29.50;33.29
71109;BME280;59614;51.012;-1.648;2022-08-14T09:36:39;99814.72;;;29.89;31.56
71109;BME280;59614;51.012;-1.648;2022-08-14T09:39:16;99811.53;;;30.02;30.69
71109;BME280;59614;51.012;-1.648;2022-08-14T09:41:49;99810.06;;;30.16;31.44
71109;BME280;59614;51.012;-1.648;2022-08-14T09:45:27;99805.91;;;29.95;32.26
71109;BME280;59614;51.012;-1.648;2022-08-14T09:47:46;99811.03;;;29.98;31.67
71109;BME280;59614;51.012;-1.648;2022-08-14T09:50:30;99799.66;;;30.03;31.34
71109;BME280;59614;51.012;-1.648;2022-08-14T09:53:02;99814.50;;;30.75;30.06
71109;BME280;59614;51.012;-1.648;2022-08-14T09:55:29;99805.28;;;30.92;29.28
71109;BME280;59614;51.012;-1.648;2022-08-14T09:58:34;99799.84;;;30.92;30.34
71109;BME280;59614;51.012;-1.648;2022-08-14T10:01:13;99801.69;;;31.08;30.89
71109;BME280;59614;51.012;-1.648;2022-08-14T10:03:53;99801.19;;;31.53;29.96
71109;BME280;59614;51.012;-1.648;2022-08-14T10:06:27;99794.63;;;31.31;28.39
71109;BME280;59614;51.012;-1.648;2022-08-14T10:11:28;99789.47;;;31.52;28.75
71109;BME280;59614;51.012;-1.648;2022-08-14T10:13:59;99792.97;;;31.69;26.67
71109;BME280;59614;51.012;-1.648;2022-08-14T10:16:44;99781.75;;;31.87;28.59
71109;BME280;59614;51.012;-1.648;2022-08-14T10:19:12;99787.47;;;32.01;27.33
71109;BME280;59614;51.012;-1.648;2022-08-14T10:21:41;99779.00;;;31.96;25.46
71109;BME280;59614;51.012;-1.648;2022-08-14T10:24:22;99781.53;;;32.29;27.97
71109;BME280;59614;51.012;-1.648;2022-08-14T10:26:59;99775.69;;;32.70;27.14
71109;BME280;59614;51.012;-1.648;2022-08-14T10:29:37;99772.94;;;32.55;25.43
71109;BME280;59614;51.012;-1.648;2022-08-14T10:32:06;99775.09;;;32.60;27.27
71109;BME280;59614;51.012;-1.648;2022-08-14T10:34:37;99770.94;;;32.87;25.12
71109;BME280;59614;51.012;-1.648;2022-08-14T10:37:11;99771.41;;;32.53;24.49
71109;BME280;59614;51.012;-1.648;2022-08-14T10:39:39;99772.16;;;32.61;24.27
71109;BME280;59614;51.012;-1.648;2022-08-14T10:42:08;99777.81;;;32.60;24.79
71109;BME280;59614;51.012;-1.648;2022-08-14T10:44:40;99769.53;;;32.53;24.83
71109;BME280;59614;51.012;-1.648;2022-08-14T10:47:08;99769.50;;;32.76;24.04
71109;BME280;59614;51.012;-1.648;2022-08-14T10:49:56;99767.25;;;32.57;25.16
71109;BME280;59614;51.012;-1.648;2022-08-14T10:52:25;99753.63;;;32.10;24.70
71109;BME280;59614;51.012;-1.648;2022-08-14T10:54:52;99759.06;;;32.57;24.10
71109;BME280;59614;51.012;-1.648;2022-08-14T10:57:20;99758.44;;;32.70;23.34
71109;BME280;59614;51.012;-1.648;2022-08-14T10:59:55;99751.31;;;32.45;22.47
71109;BME280;59614;51.012;-1.648;2022-08-14T11:02:22;99749.00;;;32.42;25.75
71109;BME280;59614;51.012;-1.648;2022-08-14T11:07:28;99743.13;;;32.45;22.48
71109;BME280;59614;51.012;-1.648;2022-08-14T11:09:59;99736.50;;;32.78;22.93
71109;BME280;59614;51.012;-1.648;2022-08-14T11:12:38;99736.72;;;33.06;22.89
71109;BME280;59614;51.012;-1.648;2022-08-14T11:15:04;99733.88;;;33.15;20.79
71109;BME280;59614;51.012;-1.648;2022-08-14T11:17:31;99729.69;;;33.49;21.41
71109;BME280;59614;51.012;-1.648;2022-08-14T11:19:58;99730.78;;;33.18;22.60
71109;BME280;59614;51.012;-1.648;2022-08-14T11:22:29;99725.09;;;33.49;20.95
71109;BME280;59614;51.012;-1.648;2022-08-14T11:25:01;99720.47;;;33.50;20.50
71109;BME280;59614;51.012;-1.648;2022-08-14T11:27:28;99716.34;;;34.19;21.38
71109;BME280;59614;51.012;-1.648;2022-08-14T11:30:02;99713.19;;;33.79;22.22
71109;BME280;59614;51.012;-1.648;2022-08-14T11:32:29;99717.28;;;33.68;23.82
71109;BME280;59614;51.012;-1.648;2022-08-14T11:34:56;99715.53;;;34.25;21.92
71109;BME280;59614;51.012;-1.648;2022-08-14T11:37:22;99714.28;;;33.99;21.26
71109;BME280;59614;51.012;-1.648;2022-08-14T11:39:48;99698.53;;;33.86;21.22
71109;BME280;59614;51.012;-1.648;2022-08-14T11:42:25;99704.84;;;34.30;22.84
71109;BME280;59614;51.012;-1.648;2022-08-14T11:44:52;99708.16;;;33.97;21.83
71109;BME280;59614;51.012;-1.648;2022-08-14T11:47:18;99712.41;;;33.85;23.09
71109;BME280;59614;51.012;-1.648;2022-08-14T11:49:48;99717.00;;;33.63;22.44
71109;BME280;59614;51.012;-1.648;2022-08-14T11:52:14;99710.66;;;33.77;22.91
71109;BME280;59614;51.012;-1.648;2022-08-14T11:54:41;99718.72;;;34.29;23.09
71109;BME280;59614;51.012;-1.648;2022-08-14T11:57:16;99713.44;;;33.84;24.34
71109;BME280;59614;51.012;-1.648;2022-08-14T11:59:42;99718.72;;;33.85;23.21
71109;BME280;59614;51.012;-1.648;2022-08-14T12:02:17;99709.75;;;34.13;23.07
71109;BME280;59614;51.012;-1.648;2022-08-14T12:04:49;99707.44;;;34.95;23.14
71109;BME280;59614;51.012;-1.648;2022-08-14T12:07:15;99707.22;;;34.69;21.87
71109;BME280;59614;51.012;-1.648;2022-08-14T12:09:43;99700.97;;;34.75;23.09
71109;BME280;59614;51.012;-1.648;2022-08-14T12:12:27;99699.63;;;34.14;22.64
71109;BME280;59614;51.012;-1.648;2022-08-14T12:14:58;99699.50;;;33.79;24.33
71109;BME280;59614;51.012;-1.648;2022-08-14T12:17:26;99690.75;;;33.47;24.84
71109;BME280;59614;51.012;-1.648;2022-08-14T12:22:42;99688.72;;;32.74;27.62
71109;BME280;59614;51.012;-1.648;2022-08-14T12:25:14;99690.88;;;32.48;26.26
71109;BME280;59614;51.012;-1.648;2022-08-14T12:27:45;99692.56;;;32.11;23.88
71109;BME280;59614;51.012;-1.648;2022-08-14T12:32:53;99677.53;;;32.54;23.19
71109;BME280;59614;51.012;-1.648;2022-08-14T12:35:20;99681.03;;;32.92;23.29
71109;BME280;59614;51.012;-1.648;2022-08-14T12:37:49;99670.63;;;33.18;25.81
71109;BME280;59614;51.012;-1.648;2022-08-14T12:40:16;99666.19;;;32.57;24.83
71109;BME280;59614;51.012;-1.648;2022-08-14T12:42:41;99669.78;;;32.57;23.10
71109;BME280;59614;51.012;-1.648;2022-08-14T12:45:10;99661.84;;;32.77;22.74
71109;BME280;59614;51.012;-1.648;2022-08-14T12:47:42;99666.31;;;32.93;27.40
71109;BME280;59614;51.012;-1.648;2022-08-14T12:50:09;99662.81;;;33.00;25.27
71109;BME280;59614;51.012;-1.648;2022-08-14T12:52:39;99658.38;;;33.50;21.88
71109;BME280;59614;51.012;-1.648;2022-08-14T12:55:10;99664.94;;;33.34;23.63
71109;BME280;59614;51.012;-1.648;2022-08-14T12:57:43;99660.09;;;34.16;22.04
71109;BME280;59614;51.012;-1.648;2022-08-14T13:00:13;99655.09;;;33.98;22.44
71109;BME280;59614;51.012;-1.648;2022-08-14T13:02:45;99658.38;;;34.15;22.22
71109;BME280;59614;51.012;-1.648;2022-08-14T13:05:12;99638.91;;;35.58;21.55
71109;BME280;59614;51.012;-1.648;2022-08-14T13:07:39;99641.84;;;35.63;20.34
71109;BME280;59614;51.012;-1.648;2022-08-14T13:10:07;99638.63;;;34.90;22.09
71109;BME280;59614;51.012;-1.648;2022-08-14T13:12:33;99637.31;;;33.29;23.61
71109;BME280;59614;51.012;-1.648;2022-08-14T13:15:03;99634.84;;;33.34;24.90